sensor_id;sensor_type;location;lat;lon;timestamp;P1;durP1;ratioP1;P2;durP2;ratioP2
50976;SDS011;36992;48.200;12.418;2024-03-23T00:56:22;4.72;;;1.30;;
50976;SDS011;36992;48.200;12.418;2024-03-23T00:58:49;2.80;;;1.25;;
50976;SDS011;36992;48.200;12.418;2024-03-23T01:01:15;2.55;;;1.13;;
50976;SDS011;36992;48.200;12.418;2024-03-23T01:03:41;2.35;;;0.80;;
50976;SDS011;36992;48.200;12.418;2024-03-23T01:06:07;2.40;;;1.17;;
50976;SDS011;36992;48.200;12.418;2024-03-23T01:08:33;2.25;;;1.02;;
50976;SDS011;36992;48.200;12.418;2024-03-23T01:11:00;2.75;;;1.42;;
50976;SDS011;36992;48.200;12.418;2024-03-23T01:13:27;2.63;;;1.52;;
50976;SDS011;36992;48.200;12.418;2024-03-23T01:15:54;3.10;;;1.58;;
50976;SDS011;36992;48.200;12.418;2024-03-23T01:18:22;1.98;;;1.05;;
50976;SDS011;36992;48.200;12.418;2024-03-23T01:20:48;3.28;;;1.40;;
50976;SDS011;36992;48.200;12.418;2024-03-23T01:23:15;3.10;;;1.48;;
50976;SDS011;36992;48.200;12.418;2024-03-23T01:25:41;3.08;;;1.33;;
50976;SDS011;36992;48.200;12.418;2024-03-23T01:28:08;3.70;;;1.63;;
50976;SDS011;36992;48.200;12.418;2024-03-23T01:30:34;2.38;;;1.67;;
50976;SDS011;36992;48.200;12.418;2024-03-23T01:33:01;3.85;;;1.35;;
50976;SDS011;36992;48.200;12.418;2024-03-23T01:35:28;3.17;;;1.50;;
50976;SDS011;36992;48.200;12.418;2024-03-23T01:37:54;3.30;;;1.50;;
50976;SDS011;36992;48.200;12.418;2024-03-23T01:40:20;2.60;;;1.40;;
50976;SDS011;36992;48.200;12.418;2024-03-23T01:42:54;3.28;;;1.88;;
50976;SDS011;36992;48.200;12.418;2024-03-23T01:45:22;2.97;;;1.60;;
50976;SDS011;36992;48.200;12.418;2024-03-23T01:47:49;2.90;;;1.60;;
50976;SDS011;36992;48.200;12.418;2024-03-23T01:50:14;3.80;;;1.77;;
50976;SDS011;36992;48.200;12.418;2024-03-23T01:52:41;2.83;;;1.55;;
50976;SDS011;36992;48.200;12.418;2024-03-23T01:55:07;4.03;;;1.50;;
50976;SDS011;36992;48.200;12.418;2024-03-23T01:57:34;2.45;;;1.58;;
50976;SDS011;36992;48.200;12.418;2024-03-23T02:00:00;2.55;;;1.00;;
50976;SDS011;36992;48.200;12.418;2024-03-23T02:02:28;3.13;;;1.30;;
50976;SDS011;36992;48.200;12.418;2024-03-23T02:04:53;2.58;;;1.13;;
50976;SDS011;36992;48.200;12.418;2024-03-23T02:07:20;2.47;;;1.10;;
50976;SDS011;36992;48.200;12.418;2024-03-23T02:09:45;2.92;;;1.27;;
50976;SDS011;36992;48.200;12.418;2024-03-23T02:12:12;6.65;;;1.83;;
50976;SDS011;36992;48.200;12.418;2024-03-23T02:14:37;4.10;;;1.58;;
50976;SDS011;36992;48.200;12.418;2024-03-23T02:17:04;2.35;;;1.05;;
50976;SDS011;36992;48.200;12.418;2024-03-23T02:19:31;2.92;;;1.10;;
50976;SDS011;36992;48.200;12.418;2024-03-23T02:21:57;2.60;;;0.95;;
50976;SDS011;36992;48.200;12.418;2024-03-23T02:24:24;2.53;;;1.08;;
50976;SDS011;36992;48.200;12.418;2024-03-23T02:26:51;2.15;;;0.98;;
50976;SDS011;36992;48.200;12.418;2024-03-23T02:29:16;4.22;;;1.33;;
50976;SDS011;36992;48.200;12.418;2024-03-23T02:31:44;2.25;;;1.00;;
50976;SDS011;36992;48.200;12.418;2024-03-23T02:34:10;2.10;;;1.17;;
50976;SDS011;36992;48.200;12.418;2024-03-23T02:36:36;2.33;;;1.02;;
50976;SDS011;36992;48.200;12.418;2024-03-23T02:39:02;2.13;;;1.02;;
50976;SDS011;36992;48.200;12.418;2024-03-23T02:41:30;2.05;;;0.90;;
50976;SDS011;36992;48.200;12.418;2024-03-23T02:43:55;1.88;;;0.90;;
50976;SDS011;36992;48.200;12.418;2024-03-23T02:46:22;3.10;;;1.63;;
50976;SDS011;36992;48.200;12.418;2024-03-23T02:48:48;2.72;;;1.27;;
50976;SDS011;36992;48.200;12.418;2024-03-23T02:51:14;4.93;;;2.13;;
50976;SDS011;36992;48.200;12.418;2024-03-23T02:53:40;3.28;;;1.27;;
50976;SDS011;36992;48.200;12.418;2024-03-23T02:56:07;3.80;;;1.02;;
50976;SDS011;36992;48.200;12.418;2024-03-23T02:58:35;3.90;;;1.02;;
50976;SDS011;36992;48.200;12.418;2024-03-23T03:01:00;2.55;;;1.20;;
50976;SDS011;36992;48.200;12.418;2024-03-23T03:03:27;2.55;;;1.10;;
50976;SDS011;36992;48.200;12.418;2024-03-23T03:05:54;3.35;;;1.30;;
50976;SDS011;36992;48.200;12.418;2024-03-23T03:08:21;2.78;;;1.23;;
50976;SDS011;36992;48.200;12.418;2024-03-23T03:10:47;3.33;;;1.17;;
50976;SDS011;36992;48.200;12.418;2024-03-23T03:13:13;3.03;;;1.35;;
50976;SDS011;36992;48.200;12.418;2024-03-23T03:15:40;2.67;;;0.90;;
50976;SDS011;36992;48.200;12.418;2024-03-23T03:18:07;2.08;;;1.23;;
50976;SDS011;36992;48.200;12.418;2024-03-23T03:20:32;5.72;;;1.17;;
50976;SDS011;36992;48.200;12.418;2024-03-23T03:22:59;3.35;;;1.33;;
50976;SDS011;36992;48.200;12.418;2024-03-23T03:25:25;2.58;;;1.55;;
50976;SDS011;36992;48.200;12.418;2024-03-23T03:27:51;3.90;;;1.30;;
50976;SDS011;36992;48.200;12.418;2024-03-23T03:30:17;2.13;;;1.10;;
50976;SDS011;36992;48.200;12.418;2024-03-23T03:32:45;4.00;;;1.60;;
50976;SDS011;36992;48.200;12.418;2024-03-23T03:35:10;3.47;;;1.40;;
50976;SDS011;36992;48.200;12.418;2024-03-23T03:37:37;4.78;;;2.00;;
50976;SDS011;36992;48.200;12.418;2024-03-23T03:40:03;2.78;;;1.20;;
50976;SDS011;36992;48.200;12.418;2024-03-23T03:42:30;2.17;;;0.95;;
50976;SDS011;36992;48.200;12.418;2024-03-23T03:44:55;2.42;;;1.10;;
50976;SDS011;36992;48.200;12.418;2024-03-23T03:47:22;2.10;;;1.00;;
50976;SDS011;36992;48.200;12.418;2024-03-23T03:49:48;2.20;;;0.90;;
50976;SDS011;36992;48.200;12.418;2024-03-23T03:52:15;1.83;;;0.82;;
50976;SDS011;36992;48.200;12.418;2024-03-23T03:54:40;1.98;;;1.10;;
50976;SDS011;36992;48.200;12.418;2024-03-23T03:57:07;2.50;;;0.93;;
50976;SDS011;36992;48.200;12.418;2024-03-23T03:59:32;2.50;;;1.20;;
50976;SDS011;36992;48.200;12.418;2024-03-23T04:01:59;2.45;;;1.35;;
50976;SDS011;36992;48.200;12.418;2024-03-23T04:04:25;3.95;;;0.95;;
50976;SDS011;36992;48.200;12.418;2024-03-23T04:06:58;2.72;;;1.10;;
50976;SDS011;36992;48.200;12.418;2024-03-23T04:09:24;2.97;;;1.10;;
50976;SDS011;36992;48.200;12.418;2024-03-23T04:11:51;2.15;;;0.85;;
50976;SDS011;36992;48.200;12.418;2024-03-23T04:14:16;2.33;;;0.98;;
50976;SDS011;36992;48.200;12.418;2024-03-23T04:16:43;2.17;;;0.85;;
50976;SDS011;36992;48.200;12.418;2024-03-23T04:19:08;2.80;;;1.40;;
50976;SDS011;36992;48.200;12.418;2024-03-23T04:21:35;1.70;;;0.80;;
50976;SDS011;36992;48.200;12.418;2024-03-23T04:24:02;2.53;;;0.70;;
50976;SDS011;36992;48.200;12.418;2024-03-23T04:26:28;1.85;;;0.95;;
50976;SDS011;36992;48.200;12.418;2024-03-23T04:28:54;2.90;;;0.93;;
50976;SDS011;36992;48.200;12.418;2024-03-23T04:31:20;1.42;;;0.57;;
50976;SDS011;36992;48.200;12.418;2024-03-23T04:33:46;1.40;;;0.77;;
50976;SDS011;36992;48.200;12.418;2024-03-23T04:36:13;2.22;;;1.00;;
50976;SDS011;36992;48.200;12.418;2024-03-23T04:38:38;2.47;;;1.23;;
50976;SDS011;36992;48.200;12.418;2024-03-23T04:41:06;2.05;;;0.90;;
50976;SDS011;36992;48.200;12.418;2024-03-23T04:43:32;1.70;;;0.68;;
50976;SDS011;36992;48.200;12.418;2024-03-23T04:45:58;1.50;;;0.75;;
50976;SDS011;36992;48.200;12.418;2024-03-23T04:48:25;3.53;;;1.10;;
50976;SDS011;36992;48.200;12.418;2024-03-23T04:50:54;1.13;;;0.60;;
50976;SDS011;36992;48.200;12.418;2024-03-23T04:53:22;1.70;;;0.80;;
50976;SDS011;36992;48.200;12.418;2024-03-23T04:55:53;4.72;;;1.50;;
50976;SDS011;36992;48.200;12.418;2024-03-23T04:58:20;2.13;;;0.80;;
50976;SDS011;36992;48.200;12.418;2024-03-23T05:00:46;2.08;;;0.82;;
50976;SDS011;36992;48.200;12.418;2024-03-23T05:03:12;1.55;;;0.70;;
50976;SDS011;36992;48.200;12.418;2024-03-23T05:05:38;1.55;;;0.60;;
50976;SDS011;36992;48.200;12.418;2024-03-23T05:08:05;1.75;;;0.77;;
50976;SDS011;36992;48.200;12.418;2024-03-23T05:10:32;2.50;;;0.80;;
50976;SDS011;36992;48.200;12.418;2024-03-23T05:12:58;2.33;;;0.80;;
50976;SDS011;36992;48.200;12.418;2024-03-23T05:15:26;2.22;;;0.75;;
50976;SDS011;36992;48.200;12.418;2024-03-23T05:17:51;1.65;;;0.90;;
50976;SDS011;36992;48.200;12.418;2024-03-23T05:20:19;1.83;;;0.70;;
50976;SDS011;36992;48.200;12.418;2024-03-23T05:22:44;2.58;;;0.95;;
50976;SDS011;36992;48.200;12.418;2024-03-23T05:25:11;2.42;;;0.95;;
50976;SDS011;36992;48.200;12.418;2024-03-23T05:27:37;1.45;;;0.80;;
50976;SDS011;36992;48.200;12.418;2024-03-23T05:30:04;1.38;;;0.70;;
50976;SDS011;36992;48.200;12.418;2024-03-23T05:32:32;2.05;;;0.80;;
50976;SDS011;36992;48.200;12.418;2024-03-23T05:34:58;2.50;;;0.98;;
50976;SDS011;36992;48.200;12.418;2024-03-23T05:37:24;2.17;;;0.80;;
50976;SDS011;36992;48.200;12.418;2024-03-23T05:39:50;2.25;;;0.90;;
50976;SDS011;36992;48.200;12.418;2024-03-23T05:42:16;1.83;;;1.10;;
50976;SDS011;36992;48.200;12.418;2024-03-23T05:44:43;1.83;;;0.80;;
50976;SDS011;36992;48.200;12.418;2024-03-23T05:47:10;2.00;;;0.70;;
50976;SDS011;36992;48.200;12.418;2024-03-23T05:49:39;1.63;;;0.80;;
50976;SDS011;36992;48.200;12.418;2024-03-23T05:52:05;1.98;;;0.80;;
50976;SDS011;36992;48.200;12.418;2024-03-23T05:54:31;1.65;;;0.70;;
50976;SDS011;36992;48.200;12.418;2024-03-23T05:56:57;1.92;;;1.00;;
50976;SDS011;36992;48.200;12.418;2024-03-23T05:59:24;2.13;;;0.70;;
50976;SDS011;36992;48.200;12.418;2024-03-23T06:01:50;2.17;;;0.93;;
50976;SDS011;36992;48.200;12.418;2024-03-23T06:04:17;1.40;;;0.70;;
50976;SDS011;36992;48.200;12.418;2024-03-23T06:06:44;1.83;;;0.65;;
50976;SDS011;36992;48.200;12.418;2024-03-23T06:09:10;1.38;;;0.60;;
50976;SDS011;36992;48.200;12.418;2024-03-23T06:11:36;1.35;;;0.60;;
50976;SDS011;36992;48.200;12.418;2024-03-23T06:14:02;1.60;;;0.57;;
50976;SDS011;36992;48.200;12.418;2024-03-23T06:16:28;2.22;;;0.77;;
50976;SDS011;36992;48.200;12.418;2024-03-23T06:18:55;4.45;;;1.30;;
50976;SDS011;36992;48.200;12.418;2024-03-23T06:21:21;2.15;;;0.60;;
50976;SDS011;36992;48.200;12.418;2024-03-23T06:23:50;1.58;;;0.70;;
50976;SDS011;36992;48.200;12.418;2024-03-23T06:26:17;1.23;;;0.52;;
50976;SDS011;36992;48.200;12.418;2024-03-23T06:28:44;1.73;;;0.55;;
50976;SDS011;36992;48.200;12.418;2024-03-23T06:31:09;1.83;;;0.52;;
50976;SDS011;36992;48.200;12.418;2024-03-23T06:33:36;2.03;;;0.50;;
50976;SDS011;36992;48.200;12.418;2024-03-23T06:36:01;2.13;;;0.65;;
50976;SDS011;36992;48.200;12.418;2024-03-23T06:38:28;1.52;;;0.50;;
50976;SDS011;36992;48.200;12.418;2024-03-23T06:40:55;3.10;;;0.55;;
50976;SDS011;36992;48.200;12.418;2024-03-23T06:43:22;1.83;;;0.60;;
50976;SDS011;36992;48.200;12.418;2024-03-23T06:45:52;0.95;;;0.38;;
50976;SDS011;36992;48.200;12.418;2024-03-23T06:48:18;1.00;;;0.40;;
50976;SDS011;36992;48.200;12.418;2024-03-23T06:50:44;2.22;;;0.40;;
50976;SDS011;36992;48.200;12.418;2024-03-23T06:53:11;2.08;;;0.70;;
50976;SDS011;36992;48.200;12.418;2024-03-23T06:55:36;1.05;;;0.47;;
50976;SDS011;36992;48.200;12.418;2024-03-23T06:58:04;1.25;;;0.50;;
50976;SDS011;36992;48.200;12.418;2024-03-23T07:00:30;1.02;;;0.50;;
50976;SDS011;36992;48.200;12.418;2024-03-23T07:02:57;1.95;;;0.73;;
50976;SDS011;36992;48.200;12.418;2024-03-23T07:05:22;2.03;;;0.50;;
50976;SDS011;36992;48.200;12.418;2024-03-23T07:07:49;2.20;;;0.70;;
50976;SDS011;36992;48.200;12.418;2024-03-23T07:10:14;2.20;;;0.50;;
50976;SDS011;36992;48.200;12.418;2024-03-23T07:12:41;1.40;;;0.60;;
50976;SDS011;36992;48.200;12.418;2024-03-23T07:15:08;1.88;;;0.40;;
50976;SDS011;36992;48.200;12.418;2024-03-23T07:17:36;3.05;;;0.63;;
50976;SDS011;36992;48.200;12.418;2024-03-23T07:20:01;1.20;;;0.40;;
50976;SDS011;36992;48.200;12.418;2024-03-23T07:22:29;1.45;;;0.40;;
50976;SDS011;36992;48.200;12.418;2024-03-23T07:24:54;1.23;;;0.40;;
50976;SDS011;36992;48.200;12.418;2024-03-23T07:27:21;1.30;;;0.50;;
50976;SDS011;36992;48.200;12.418;2024-03-23T07:29:46;3.20;;;0.70;;
50976;SDS011;36992;48.200;12.418;2024-03-23T07:32:14;3.80;;;0.50;;
50976;SDS011;36992;48.200;12.418;2024-03-23T07:34:40;1.98;;;0.63;;
50976;SDS011;36992;48.200;12.418;2024-03-23T07:37:08;1.33;;;0.50;;
50976;SDS011;36992;48.200;12.418;2024-03-23T07:39:34;1.30;;;0.73;;
50976;SDS011;36992;48.200;12.418;2024-03-23T07:42:00;2.17;;;0.52;;
50976;SDS011;36992;48.200;12.418;2024-03-23T07:44:26;1.35;;;0.50;;
50976;SDS011;36992;48.200;12.418;2024-03-23T07:46:52;1.85;;;0.60;;
50976;SDS011;36992;48.200;12.418;2024-03-23T07:49:19;2.60;;;0.60;;
50976;SDS011;36992;48.200;12.418;2024-03-23T07:51:45;0.95;;;0.40;;
50976;SDS011;36992;48.200;12.418;2024-03-23T07:54:11;1.92;;;0.43;;
50976;SDS011;36992;48.200;12.418;2024-03-23T07:56:37;2.22;;;0.60;;
50976;SDS011;36992;48.200;12.418;2024-03-23T07:59:03;0.80;;;0.30;;
50976;SDS011;36992;48.200;12.418;2024-03-23T08:01:29;1.55;;;0.52;;
50976;SDS011;36992;48.200;12.418;2024-03-23T08:03:55;2.42;;;0.45;;
50976;SDS011;36992;48.200;12.418;2024-03-23T08:06:23;2.22;;;0.85;;
50976;SDS011;36992;48.200;12.418;2024-03-23T08:08:49;1.90;;;0.40;;
50976;SDS011;36992;48.200;12.418;2024-03-23T08:13:49;0.90;;;0.30;;
50976;SDS011;36992;48.200;12.418;2024-03-23T08:16:16;3.33;;;0.60;;
50976;SDS011;36992;48.200;12.418;2024-03-23T08:18:41;0.98;;;0.45;;
50976;SDS011;36992;48.200;12.418;2024-03-23T08:21:08;1.15;;;0.38;;
50976;SDS011;36992;48.200;12.418;2024-03-23T08:23:35;2.05;;;0.30;;
50976;SDS011;36992;48.200;12.418;2024-03-23T08:26:03;1.15;;;0.30;;
50976;SDS011;36992;48.200;12.418;2024-03-23T08:28:32;0.90;;;0.30;;
50976;SDS011;36992;48.200;12.418;2024-03-23T08:31:00;2.67;;;0.70;;
50976;SDS011;36992;48.200;12.418;2024-03-23T08:33:27;2.47;;;0.50;;
50976;SDS011;36992;48.200;12.418;2024-03-23T08:35:54;1.35;;;0.35;;
50976;SDS011;36992;48.200;12.418;2024-03-23T08:38:20;1.50;;;0.50;;
50976;SDS011;36992;48.200;12.418;2024-03-23T08:40:48;1.38;;;0.40;;
50976;SDS011;36992;48.200;12.418;2024-03-23T08:43:21;1.80;;;0.73;;
50976;SDS011;36992;48.200;12.418;2024-03-23T08:45:48;4.10;;;0.40;;
50976;SDS011;36992;48.200;12.418;2024-03-23T08:48:14;4.65;;;0.40;;
50976;SDS011;36992;48.200;12.418;2024-03-23T08:50:40;5.45;;;1.52;;
50976;SDS011;36992;48.200;12.418;2024-03-23T08:53:06;4.20;;;1.25;;
50976;SDS011;36992;48.200;12.418;2024-03-23T08:55:33;4.35;;;0.70;;
50976;SDS011;36992;48.200;12.418;2024-03-23T08:57:59;4.18;;;0.98;;
50976;SDS011;36992;48.200;12.418;2024-03-23T09:00:26;2.53;;;0.60;;
50976;SDS011;36992;48.200;12.418;2024-03-23T09:02:51;2.15;;;0.55;;
50976;SDS011;36992;48.200;12.418;2024-03-23T09:05:18;2.08;;;0.90;;
50976;SDS011;36992;48.200;12.418;2024-03-23T09:07:44;2.20;;;1.02;;
50976;SDS011;36992;48.200;12.418;2024-03-23T09:10:10;2.03;;;1.00;;
50976;SDS011;36992;48.200;12.418;2024-03-23T09:12:36;1.92;;;1.05;;
50976;SDS011;36992;48.200;12.418;2024-03-23T09:15:04;2.78;;;1.08;;
50976;SDS011;36992;48.200;12.418;2024-03-23T09:17:30;3.25;;;0.98;;
50976;SDS011;36992;48.200;12.418;2024-03-23T09:19:57;1.52;;;0.70;;
50976;SDS011;36992;48.200;12.418;2024-03-23T09:22:22;2.40;;;0.98;;
50976;SDS011;36992;48.200;12.418;2024-03-23T09:24:49;3.00;;;1.23;;
50976;SDS011;36992;48.200;12.418;2024-03-23T09:27:14;2.13;;;0.68;;
50976;SDS011;36992;48.200;12.418;2024-03-23T09:29:41;2.38;;;1.10;;
50976;SDS011;36992;48.200;12.418;2024-03-23T09:32:08;2.58;;;1.13;;
50976;SDS011;36992;48.200;12.418;2024-03-23T09:34:34;2.40;;;1.02;;
50976;SDS011;36992;48.200;12.418;2024-03-23T09:37:00;2.35;;;0.85;;
50976;SDS011;36992;48.200;12.418;2024-03-23T09:39:26;9.13;;;1.58;;
50976;SDS011;36992;48.200;12.418;2024-03-23T09:41:56;3.08;;;1.08;;
50976;SDS011;36992;48.200;12.418;2024-03-23T09:44:23;3.33;;;1.25;;
50976;SDS011;36992;48.200;12.418;2024-03-23T09:46:51;2.50;;;0.73;;
50976;SDS011;36992;48.200;12.418;2024-03-23T09:49:19;2.60;;;1.17;;
50976;SDS011;36992;48.200;12.418;2024-03-23T09:51:44;1.65;;;0.70;;
50976;SDS011;36992;48.200;12.418;2024-03-23T09:54:11;4.70;;;0.98;;
50976;SDS011;36992;48.200;12.418;2024-03-23T09:56:37;2.72;;;0.70;;
50976;SDS011;36992;48.200;12.418;2024-03-23T09:59:04;3.58;;;1.05;;
50976;SDS011;36992;48.200;12.418;2024-03-23T10:01:31;2.35;;;1.20;;
50976;SDS011;36992;48.200;12.418;2024-03-23T10:03:58;4.43;;;1.00;;
50976;SDS011;36992;48.200;12.418;2024-03-23T10:06:25;2.03;;;0.70;;
50976;SDS011;36992;48.200;12.418;2024-03-23T10:08:51;1.73;;;0.50;;
50976;SDS011;36992;48.200;12.418;2024-03-23T10:11:18;1.90;;;0.75;;
50976;SDS011;36992;48.200;12.418;2024-03-23T10:13:46;3.30;;;0.82;;
50976;SDS011;36992;48.200;12.418;2024-03-23T10:16:12;1.48;;;0.40;;
50976;SDS011;36992;48.200;12.418;2024-03-23T10:18:47;2.00;;;0.52;;
50976;SDS011;36992;48.200;12.418;2024-03-23T10:21:14;1.90;;;0.50;;
50976;SDS011;36992;48.200;12.418;2024-03-23T10:23:42;2.40;;;0.77;;
50976;SDS011;36992;48.200;12.418;2024-03-23T10:26:12;2.28;;;0.70;;
50976;SDS011;36992;48.200;12.418;2024-03-23T10:28:50;0.98;;;0.40;;
50976;SDS011;36992;48.200;12.418;2024-03-23T10:31:16;1.35;;;0.50;;
50976;SDS011;36992;48.200;12.418;2024-03-23T10:33:44;2.80;;;1.17;;
50976;SDS011;36992;48.200;12.418;2024-03-23T10:36:10;1.45;;;0.60;;
50976;SDS011;36992;48.200;12.418;2024-03-23T10:38:37;2.38;;;0.65;;
50976;SDS011;36992;48.200;12.418;2024-03-23T10:41:06;1.63;;;0.50;;
50976;SDS011;36992;48.200;12.418;2024-03-23T10:43:34;1.98;;;0.75;;
50976;SDS011;36992;48.200;12.418;2024-03-23T10:46:01;1.52;;;0.50;;
50976;SDS011;36992;48.200;12.418;2024-03-23T10:48:28;1.52;;;0.40;;
50976;SDS011;36992;48.200;12.418;2024-03-23T10:50:53;1.83;;;0.60;;
50976;SDS011;36992;48.200;12.418;2024-03-23T10:53:20;2.15;;;0.40;;
50976;SDS011;36992;48.200;12.418;2024-03-23T10:55:50;1.33;;;0.40;;
50976;SDS011;36992;48.200;12.418;2024-03-23T10:58:19;0.60;;;0.30;;
50976;SDS011;36992;48.200;12.418;2024-03-23T11:00:49;1.45;;;0.40;;
50976;SDS011;36992;48.200;12.418;2024-03-23T11:03:29;0.90;;;0.20;;
50976;SDS011;36992;48.200;12.418;2024-03-23T11:05:55;0.70;;;0.20;;
50976;SDS011;36992;48.200;12.418;2024-03-23T11:08:29;1.70;;;0.15;;
50976;SDS011;36992;48.200;12.418;2024-03-23T11:11:08;0.30;;;0.10;;
50976;SDS011;36992;48.200;12.418;2024-03-23T11:13:39;0.40;;;0.00;;
50976;SDS011;36992;48.200;12.418;2024-03-23T11:16:12;1.13;;;0.10;;
50976;SDS011;36992;48.200;12.418;2024-03-23T11:18:40;0.40;;;0.10;;
50976;SDS011;36992;48.200;12.418;2024-03-23T11:21:06;1.35;;;0.45;;
50976;SDS011;36992;48.200;12.418;2024-03-23T11:23:33;0.68;;;0.10;;
50976;SDS011;36992;48.200;12.418;2024-03-23T11:25:58;0.10;;;0.08;;
50976;SDS011;36992;48.200;12.418;2024-03-23T11:28:25;0.13;;;0.10;;
50976;SDS011;36992;48.200;12.418;2024-03-23T11:30:52;0.55;;;0.10;;
50976;SDS011;36992;48.200;12.418;2024-03-23T11:33:18;0.10;;;0.00;;
50976;SDS011;36992;48.200;12.418;2024-03-23T11:35:44;0.40;;;0.10;;
50976;SDS011;36992;48.200;12.418;2024-03-23T11:38:11;0.80;;;0.10;;
50976;SDS011;36992;48.200;12.418;2024-03-23T11:40:38;0.38;;;0.03;;
50976;SDS011;36992;48.200;12.418;2024-03-23T11:43:06;0.15;;;0.00;;
50976;SDS011;36992;48.200;12.418;2024-03-23T11:45:35;0.00;;;0.00;;
50976;SDS011;36992;48.200;12.418;2024-03-23T11:48:04;0.20;;;0.00;;
50976;SDS011;36992;48.200;12.418;2024-03-23T11:50:31;0.17;;;0.08;;
50976;SDS011;36992;48.200;12.418;2024-03-23T11:55:48;1.30;;;0.20;;
50976;SDS011;36992;48.200;12.418;2024-03-23T11:58:16;0.40;;;0.10;;
50976;SDS011;36992;48.200;12.418;2024-03-23T12:00:43;0.25;;;0.00;;
50976;SDS011;36992;48.200;12.418;2024-03-23T12:03:17;4.57;;;0.17;;
50976;SDS011;36992;48.200;12.418;2024-03-23T12:05:46;0.30;;;0.10;;
50976;SDS011;36992;48.200;12.418;2024-03-23T12:08:21;0.85;;;0.10;;
50976;SDS011;36992;48.200;12.418;2024-03-23T12:10:48;0.70;;;0.20;;
50976;SDS011;36992;48.200;12.418;2024-03-23T12:13:16;0.77;;;0.20;;
50976;SDS011;36992;48.200;12.418;2024-03-23T12:15:43;0.75;;;0.10;;
50976;SDS011;36992;48.200;12.418;2024-03-23T12:18:10;1.48;;;0.20;;
50976;SDS011;36992;48.200;12.418;2024-03-23T12:20:37;0.85;;;0.20;;
50976;SDS011;36992;48.200;12.418;2024-03-23T12:23:05;0.98;;;0.15;;
50976;SDS011;36992;48.200;12.418;2024-03-23T12:25:31;0.43;;;0.20;;
50976;SDS011;36992;48.200;12.418;2024-03-23T12:27:58;0.40;;;0.10;;
50976;SDS011;36992;48.200;12.418;2024-03-23T12:30:24;0.63;;;0.20;;
50976;SDS011;36992;48.200;12.418;2024-03-23T12:32:51;1.30;;;0.57;;
50976;SDS011;36992;48.200;12.418;2024-03-23T12:35:16;0.40;;;0.10;;
50976;SDS011;36992;48.200;12.418;2024-03-23T12:37:44;0.65;;;0.10;;
50976;SDS011;36992;48.200;12.418;2024-03-23T12:40:10;0.75;;;0.17;;
50976;SDS011;36992;48.200;12.418;2024-03-23T12:42:37;0.10;;;0.10;;
50976;SDS011;36992;48.200;12.418;2024-03-23T12:45:03;0.38;;;0.10;;
50976;SDS011;36992;48.200;12.418;2024-03-23T12:47:30;0.43;;;0.10;;
50976;SDS011;36992;48.200;12.418;2024-03-23T12:49:56;1.65;;;0.45;;
50976;SDS011;36992;48.200;12.418;2024-03-23T12:52:22;0.43;;;0.10;;
50976;SDS011;36992;48.200;12.418;2024-03-23T12:54:50;0.20;;;0.10;;
50976;SDS011;36992;48.200;12.418;2024-03-23T12:57:16;1.63;;;0.35;;
50976;SDS011;36992;48.200;12.418;2024-03-23T12:59:43;0.50;;;0.20;;
50976;SDS011;36992;48.200;12.418;2024-03-23T13:02:09;0.55;;;0.20;;
50976;SDS011;36992;48.200;12.418;2024-03-23T13:04:34;0.50;;;0.10;;
50976;SDS011;36992;48.200;12.418;2024-03-23T13:07:01;0.68;;;0.20;;
50976;SDS011;36992;48.200;12.418;2024-03-23T13:09:27;1.77;;;0.30;;
50976;SDS011;36992;48.200;12.418;2024-03-23T13:11:54;0.52;;;0.20;;
50976;SDS011;36992;48.200;12.418;2024-03-23T13:14:21;2.10;;;0.30;;
50976;SDS011;36992;48.200;12.418;2024-03-23T13:16:48;1.20;;;0.10;;
50976;SDS011;36992;48.200;12.418;2024-03-23T13:19:14;1.27;;;0.20;;
50976;SDS011;36992;48.200;12.418;2024-03-23T13:21:40;0.80;;;0.20;;
50976;SDS011;36992;48.200;12.418;2024-03-23T13:24:06;0.82;;;0.40;;
50976;SDS011;36992;48.200;12.418;2024-03-23T13:26:33;0.50;;;0.20;;
50976;SDS011;36992;48.200;12.418;2024-03-23T13:29:01;1.08;;;0.38;;
50976;SDS011;36992;48.200;12.418;2024-03-23T13:31:27;1.38;;;0.30;;
50976;SDS011;36992;48.200;12.418;2024-03-23T13:33:53;1.73;;;0.40;;
50976;SDS011;36992;48.200;12.418;2024-03-23T13:36:19;1.98;;;0.55;;
50976;SDS011;36992;48.200;12.418;2024-03-23T13:38:44;1.05;;;0.40;;
50976;SDS011;36992;48.200;12.418;2024-03-23T13:41:11;2.78;;;0.30;;
50976;SDS011;36992;48.200;12.418;2024-03-23T13:43:37;2.08;;;0.45;;
50976;SDS011;36992;48.200;12.418;2024-03-23T13:46:05;2.65;;;0.40;;
50976;SDS011;36992;48.200;12.418;2024-03-23T13:48:30;2.08;;;0.40;;
50976;SDS011;36992;48.200;12.418;2024-03-23T13:50:57;1.80;;;0.60;;
50976;SDS011;36992;48.200;12.418;2024-03-23T13:53:23;2.17;;;0.40;;
50976;SDS011;36992;48.200;12.418;2024-03-23T13:55:49;0.95;;;0.30;;
50976;SDS011;36992;48.200;12.418;2024-03-23T13:58:15;3.05;;;0.55;;
50976;SDS011;36992;48.200;12.418;2024-03-23T14:00:42;1.05;;;0.20;;
50976;SDS011;36992;48.200;12.418;2024-03-23T14:03:09;2.88;;;0.30;;
50976;SDS011;36992;48.200;12.418;2024-03-23T14:05:36;2.40;;;0.40;;
50976;SDS011;36992;48.200;12.418;2024-03-23T14:08:03;1.98;;;0.40;;
50976;SDS011;36992;48.200;12.418;2024-03-23T14:10:30;1.10;;;0.25;;
50976;SDS011;36992;48.200;12.418;2024-03-23T14:12:56;1.42;;;0.30;;
50976;SDS011;36992;48.200;12.418;2024-03-23T14:15:22;2.30;;;0.73;;
50976;SDS011;36992;48.200;12.418;2024-03-23T14:17:48;1.20;;;0.40;;
50976;SDS011;36992;48.200;12.418;2024-03-23T14:20:16;2.40;;;0.65;;
50976;SDS011;36992;48.200;12.418;2024-03-23T14:22:42;1.75;;;0.40;;
50976;SDS011;36992;48.200;12.418;2024-03-23T14:25:09;1.63;;;0.40;;
50976;SDS011;36992;48.200;12.418;2024-03-23T14:27:35;1.25;;;0.43;;
50976;SDS011;36992;48.200;12.418;2024-03-23T14:30:02;2.95;;;0.52;;
50976;SDS011;36992;48.200;12.418;2024-03-23T14:32:28;5.80;;;1.65;;
50976;SDS011;36992;48.200;12.418;2024-03-23T14:34:58;1.42;;;0.35;;
50976;SDS011;36992;48.200;12.418;2024-03-23T14:37:25;2.47;;;0.93;;
50976;SDS011;36992;48.200;12.418;2024-03-23T14:39:52;1.67;;;0.50;;
50976;SDS011;36992;48.200;12.418;2024-03-23T14:42:17;2.58;;;0.65;;
50976;SDS011;36992;48.200;12.418;2024-03-23T14:44:44;3.90;;;0.70;;
50976;SDS011;36992;48.200;12.418;2024-03-23T14:47:09;2.30;;;0.75;;
50976;SDS011;36992;48.200;12.418;2024-03-23T14:49:36;2.17;;;0.73;;
50976;SDS011;36992;48.200;12.418;2024-03-23T14:52:01;3.22;;;1.02;;
50976;SDS011;36992;48.200;12.418;2024-03-23T14:54:29;5.05;;;1.30;;
50976;SDS011;36992;48.200;12.418;2024-03-23T14:56:55;3.58;;;1.00;;
50976;SDS011;36992;48.200;12.418;2024-03-23T14:59:23;3.38;;;1.10;;
50976;SDS011;36992;48.200;12.418;2024-03-23T15:01:48;5.55;;;1.10;;
50976;SDS011;36992;48.200;12.418;2024-03-23T15:04:16;4.15;;;1.40;;
50976;SDS011;36992;48.200;12.418;2024-03-23T15:06:41;5.13;;;0.80;;
50976;SDS011;36992;48.200;12.418;2024-03-23T15:09:08;5.28;;;1.85;;
50976;SDS011;36992;48.200;12.418;2024-03-23T15:11:37;5.97;;;1.60;;
50976;SDS011;36992;48.200;12.418;2024-03-23T15:14:04;5.10;;;1.20;;
50976;SDS011;36992;48.200;12.418;2024-03-23T15:16:31;4.72;;;1.33;;
50976;SDS011;36992;48.200;12.418;2024-03-23T15:18:58;4.57;;;1.63;;
50976;SDS011;36992;48.200;12.418;2024-03-23T15:21:24;4.75;;;0.80;;
50976;SDS011;36992;48.200;12.418;2024-03-23T15:23:50;3.03;;;0.68;;
50976;SDS011;36992;48.200;12.418;2024-03-23T15:26:16;3.80;;;1.10;;
50976;SDS011;36992;48.200;12.418;2024-03-23T15:28:47;1.90;;;0.73;;
50976;SDS011;36992;48.200;12.418;2024-03-23T15:31:34;1.98;;;0.60;;